NEW MELONES RESERVOIR (NML)

Elevation: 1135' · STANISLAUS R basin · Operator: US Bureau of Reclamation

Provisional data, subject to change.
Query executed Sunday at 6:14:08   clock

Select a sensor type for a plot of data.
Note: Reservoir Flows are daily averages.

Earlier

Date RES ELE    STORAGE    RES CHG    TOC STO    ABV TOC    OUTFLOW    INFLOW    EVAP    FNF    RIV REL    PPT INC    SPILL    DIS PWR   
 FEET   AF   AF   AF   AF   CFS   CFS   CFS   CFS   CFS   INCHES   CFS   CFS  
06/06/2015 844.54 441172 -1256 2420000 -1978828 845 254 42 676 0 0.00 0 845
06/07/2015 844.53 441129 -43 2420000 -1978871 262 267 27 709 0 0.01 0 262
06/08/2015 843.97 438705 -2424 2420000 -1981295 1577 422 67 806 0 0.00 0 1577
06/09/2015 843.52 436768 -1937 2420000 -1983232 1277 367 67 721 0 0.00 0 1277
06/10/2015 843.21 435433 -1335 2420000 -1984567 913 283 43 723 0 0.00 0 913
06/11/2015 843.14 435132 -301 2420000 -1984868 553 444 43 943 0 0.00 0 553
06/12/2015 843.00 434529 -603 2420000 -1985471 642 385 47 797 0 0.00 0 642
06/13/2015 842.72 433331 -1198 2420000 -1986669 922 383 65 744 0 0.00 0 922
06/14/2015 842.30 431534 -1797 2420000 -1988466 1194 356 68 643 0 0.00 0 1194
06/15/2015 841.92 429910 -1624 2420000 -1990090 1073 323 69 540 0 0.00 0 1073
06/16/2015 841.53 428251 -1659 2420000 -1991749 1079 308 65 463 0 0.00 0 1079
06/17/2015 840.68 424644 -3607 2420000 -1995356 2071 316 64 423 0 0.00 0 2071
06/18/2015 840.37 423333 -1311 2420000 -1996667 966 369 64 461 0 0.00 0 966
06/19/2015 839.94 421517 -1816 2420000 -1998483 1193 344 67 404 0 0.00 0 1193
06/20/2015 839.48 419583 -1934 2420000 -2000417 1286 375 64 430 0 0.00 0 1286
06/21/2015 839.33 418953 -630 2420000 -2001047 575 321 64 360 0 0.00 0 575
06/22/2015 838.87 417023 -1930 2420000 -2002977 1247 336 62 365 0 0.00 0 1247
06/23/2015 838.48 415394 -1629 2420000 -2004606 1093 322 50 346 0 0.00 0 1093
06/24/2015 838.31 414684 -710 2420000 -2005316 574 286 70 305 0 0.00 0 574
06/25/2015 837.55 411521 -3163 2420000 -2008479 1800 269 64 297 0 0.00 0 1800
06/26/2015 837.01 409279 -2242 2420000 -2010721 1399 341 72 363 0 0.00 0 1399
06/27/2015 836.61 407627 -1652 2420000 -2012373 1144 382 71 -- 0 0.00 0 1144
06/28/2015 836.18 405853 -1774 2420000 -2014147 1084 257 67 271 0 0.00 0 1084
06/29/2015 835.50 403059 -2794 2420000 -2016941 1616 252 45 37 0 0.00 0 1616
06/30/2015 835.06 401254 -1805 2420000 -2018746 1179 327 58 367 0 0.00 0 1179
07/01/2015 834.78 400111 -1143 2420000 -2019889 1061 551 66 197 0 0.00 0 1061
07/02/2015 834.48 398888 -1223 2420000 -2021112 1060 506 63 260 0 0.00 0 1060
07/03/2015 834.19 397706 -1182 2420000 -2022294 1043 510 63 314 0 0.00 0 1043
07/04/2015 833.62 395391 -- 2420000 -2024609 1424 312 55 266 0 0.00 0 1424
07/05/2015 -- -- -- -- -- -- -- -- -- -- -- -- --

Later | Latest

Warning! This data is preliminary and subject to revision.

Show NML Map | Plot NML Data | 1 Month NML Data | Real-Time NML Data | NML Info